Alamota, Kansas
Current Conditions -  °F | °C
As of 2:54 PM on Monday 22 Dec 2014 (Local Time) from KGCK Reporting Station
Clear Clear  
Wind Chill: 10°   Ceiling: Unl
Heat Index: 10°   Visibility: 10mi
Dew Point: -6°   Wind: 21mph
Humidity: 32%   Direction: 340°NNW
Pressure: 29.6"   Gusts: 30mph
Location:  38.4812°N, 100.393°W
Report Text: KGCK 222054Z 34018G26KT 10SM CLR 10/M06 A2960 RMK AO2 PK WND 33027/2025 SLP024 T01001061 56026
Loading
Personal Weather Stations






























Interactive Weather Map New forecast layout! Learn more

10-Day Weather Forecast

Advertisements
Track Severe Weather on mobile